sensor_id;sensor_type;location;lat;lon;timestamp;temperature;humidity
17208;DHT22;8720;48.488;9.202;2023-12-22T00:00:34;9.60;71.30
17208;DHT22;8720;48.488;9.202;2023-12-22T00:03:01;9.50;71.30
17208;DHT22;8720;48.488;9.202;2023-12-22T00:05:29;9.40;71.70
17208;DHT22;8720;48.488;9.202;2023-12-22T00:11:20;9.40;71.30
17208;DHT22;8720;48.488;9.202;2023-12-22T00:13:48;9.40;72.50
17208;DHT22;8720;48.488;9.202;2023-12-22T00:16:17;9.30;72.60
17208;DHT22;8720;48.488;9.202;2023-12-22T00:18:44;9.30;72.60
17208;DHT22;8720;48.488;9.202;2023-12-22T00:21:11;9.30;72.80
17208;DHT22;8720;48.488;9.202;2023-12-22T00:23:39;9.30;72.70
17208;DHT22;8720;48.488;9.202;2023-12-22T00:26:06;9.30;72.50
17208;DHT22;8720;48.488;9.202;2023-12-22T00:28:34;9.30;72.60
17208;DHT22;8720;48.488;9.202;2023-12-22T00:31:01;9.30;72.60
17208;DHT22;8720;48.488;9.202;2023-12-22T00:33:30;9.30;72.70
17208;DHT22;8720;48.488;9.202;2023-12-22T00:35:58;9.30;72.60
17208;DHT22;8720;48.488;9.202;2023-12-22T00:38:26;9.30;72.70
17208;DHT22;8720;48.488;9.202;2023-12-22T00:40:53;9.40;72.90
17208;DHT22;8720;48.488;9.202;2023-12-22T00:43:20;9.40;72.80
17208;DHT22;8720;48.488;9.202;2023-12-22T00:45:48;9.40;72.70
17208;DHT22;8720;48.488;9.202;2023-12-22T00:48:15;9.40;72.60
17208;DHT22;8720;48.488;9.202;2023-12-22T00:50:44;9.40;72.40
17208;DHT22;8720;48.488;9.202;2023-12-22T00:53:12;9.40;71.70
17208;DHT22;8720;48.488;9.202;2023-12-22T00:55:40;9.40;71.90
17208;DHT22;8720;48.488;9.202;2023-12-22T00:58:07;9.40;71.80
17208;DHT22;8720;48.488;9.202;2023-12-22T01:00:34;9.50;71.60
17208;DHT22;8720;48.488;9.202;2023-12-22T01:03:02;9.50;71.40
17208;DHT22;8720;48.488;9.202;2023-12-22T01:05:30;9.50;71.10
17208;DHT22;8720;48.488;9.202;2023-12-22T01:08:02;9.50;70.80
17208;DHT22;8720;48.488;9.202;2023-12-22T01:10:29;9.50;70.20
17208;DHT22;8720;48.488;9.202;2023-12-22T01:12:57;9.40;70.30
17208;DHT22;8720;48.488;9.202;2023-12-22T01:15:24;9.50;70.40
17208;DHT22;8720;48.488;9.202;2023-12-22T01:17:52;9.50;70.40
17208;DHT22;8720;48.488;9.202;2023-12-22T01:20:19;9.50;70.60
17208;DHT22;8720;48.488;9.202;2023-12-22T01:22:46;9.50;70.70
17208;DHT22;8720;48.488;9.202;2023-12-22T01:25:15;9.60;71.00
17208;DHT22;8720;48.488;9.202;2023-12-22T01:27:43;9.50;70.50
17208;DHT22;8720;48.488;9.202;2023-12-22T01:30:12;9.60;70.80
17208;DHT22;8720;48.488;9.202;2023-12-22T01:32:39;9.60;70.80
17208;DHT22;8720;48.488;9.202;2023-12-22T01:35:07;9.50;70.60
17208;DHT22;8720;48.488;9.202;2023-12-22T01:37:35;9.50;70.40
17208;DHT22;8720;48.488;9.202;2023-12-22T01:40:04;9.50;70.00
17208;DHT22;8720;48.488;9.202;2023-12-22T01:42:34;9.40;69.90
17208;DHT22;8720;48.488;9.202;2023-12-22T01:45:01;9.40;69.80
17208;DHT22;8720;48.488;9.202;2023-12-22T01:47:29;9.30;70.30
17208;DHT22;8720;48.488;9.202;2023-12-22T01:49:56;9.10;70.30
17208;DHT22;8720;48.488;9.202;2023-12-22T01:52:25;9.10;70.30
17208;DHT22;8720;48.488;9.202;2023-12-22T01:54:53;9.00;70.00
17208;DHT22;8720;48.488;9.202;2023-12-22T01:57:22;8.90;70.10
17208;DHT22;8720;48.488;9.202;2023-12-22T01:59:50;8.80;70.20
17208;DHT22;8720;48.488;9.202;2023-12-22T02:02:21;8.70;69.80
17208;DHT22;8720;48.488;9.202;2023-12-22T02:04:49;8.50;69.50
17208;DHT22;8720;48.488;9.202;2023-12-22T02:07:16;8.50;70.10
17208;DHT22;8720;48.488;9.202;2023-12-22T02:09:44;8.40;70.50
17208;DHT22;8720;48.488;9.202;2023-12-22T02:12:11;8.40;70.80
17208;DHT22;8720;48.488;9.202;2023-12-22T02:14:39;8.30;70.80
17208;DHT22;8720;48.488;9.202;2023-12-22T02:17:14;8.30;70.90
17208;DHT22;8720;48.488;9.202;2023-12-22T02:19:48;8.20;70.10
17208;DHT22;8720;48.488;9.202;2023-12-22T02:22:15;8.20;70.90
17208;DHT22;8720;48.488;9.202;2023-12-22T02:24:44;8.20;71.20
17208;DHT22;8720;48.488;9.202;2023-12-22T02:27:21;8.20;70.90
17208;DHT22;8720;48.488;9.202;2023-12-22T02:30:08;8.20;70.50
17208;DHT22;8720;48.488;9.202;2023-12-22T02:32:42;8.20;71.10
17208;DHT22;8720;48.488;9.202;2023-12-22T02:35:15;8.20;71.40
17208;DHT22;8720;48.488;9.202;2023-12-22T02:37:46;8.20;71.10
17208;DHT22;8720;48.488;9.202;2023-12-22T02:40:17;8.20;71.30
17208;DHT22;8720;48.488;9.202;2023-12-22T02:42:46;8.20;71.20
17208;DHT22;8720;48.488;9.202;2023-12-22T02:45:15;8.20;71.50
17208;DHT22;8720;48.488;9.202;2023-12-22T02:47:44;8.30;71.60
17208;DHT22;8720;48.488;9.202;2023-12-22T02:50:12;8.30;71.90
17208;DHT22;8720;48.488;9.202;2023-12-22T02:52:41;8.30;71.90
17208;DHT22;8720;48.488;9.202;2023-12-22T02:55:09;8.40;72.20
17208;DHT22;8720;48.488;9.202;2023-12-22T02:57:38;8.40;72.00
17208;DHT22;8720;48.488;9.202;2023-12-22T03:00:06;8.40;71.60
17208;DHT22;8720;48.488;9.202;2023-12-22T03:02:35;8.50;72.10
17208;DHT22;8720;48.488;9.202;2023-12-22T03:05:02;8.50;72.10
17208;DHT22;8720;48.488;9.202;2023-12-22T03:07:30;8.60;72.20
17208;DHT22;8720;48.488;9.202;2023-12-22T03:09:57;8.60;72.10
17208;DHT22;8720;48.488;9.202;2023-12-22T03:12:24;8.60;72.10
17208;DHT22;8720;48.488;9.202;2023-12-22T03:14:53;8.60;72.10
17208;DHT22;8720;48.488;9.202;2023-12-22T03:17:21;8.70;71.30
17208;DHT22;8720;48.488;9.202;2023-12-22T03:19:48;8.70;71.50
17208;DHT22;8720;48.488;9.202;2023-12-22T03:22:15;8.70;71.10
17208;DHT22;8720;48.488;9.202;2023-12-22T03:24:43;8.80;70.90
17208;DHT22;8720;48.488;9.202;2023-12-22T03:27:11;8.80;70.20
17208;DHT22;8720;48.488;9.202;2023-12-22T03:29:41;8.80;70.30
17208;DHT22;8720;48.488;9.202;2023-12-22T03:32:10;8.70;70.00
17208;DHT22;8720;48.488;9.202;2023-12-22T03:34:37;8.70;69.50
17208;DHT22;8720;48.488;9.202;2023-12-22T03:37:05;8.80;69.90
17208;DHT22;8720;48.488;9.202;2023-12-22T03:39:32;8.80;69.70
17208;DHT22;8720;48.488;9.202;2023-12-22T03:41:59;8.70;69.50
17208;DHT22;8720;48.488;9.202;2023-12-22T03:44:26;8.80;69.50
17208;DHT22;8720;48.488;9.202;2023-12-22T03:46:54;8.70;69.20
17208;DHT22;8720;48.488;9.202;2023-12-22T03:49:23;8.80;69.40
17208;DHT22;8720;48.488;9.202;2023-12-22T03:51:50;8.80;68.80
17208;DHT22;8720;48.488;9.202;2023-12-22T03:54:17;8.70;69.20
17208;DHT22;8720;48.488;9.202;2023-12-22T03:56:44;8.80;69.10
17208;DHT22;8720;48.488;9.202;2023-12-22T03:59:12;8.80;69.00
17208;DHT22;8720;48.488;9.202;2023-12-22T04:01:39;8.80;69.10
17208;DHT22;8720;48.488;9.202;2023-12-22T04:04:08;8.80;69.40
17208;DHT22;8720;48.488;9.202;2023-12-22T04:06:39;8.80;68.80
17208;DHT22;8720;48.488;9.202;2023-12-22T04:09:06;8.80;68.10
17208;DHT22;8720;48.488;9.202;2023-12-22T04:11:34;8.80;69.20
17208;DHT22;8720;48.488;9.202;2023-12-22T04:14:02;8.80;69.30
17208;DHT22;8720;48.488;9.202;2023-12-22T04:16:29;8.80;69.40
17208;DHT22;8720;48.488;9.202;2023-12-22T04:18:57;8.90;69.60
17208;DHT22;8720;48.488;9.202;2023-12-22T04:21:24;8.90;69.70
17208;DHT22;8720;48.488;9.202;2023-12-22T04:23:53;8.90;69.70
17208;DHT22;8720;48.488;9.202;2023-12-22T04:26:20;8.90;69.30
17208;DHT22;8720;48.488;9.202;2023-12-22T04:28:47;8.90;69.70
17208;DHT22;8720;48.488;9.202;2023-12-22T04:31:14;9.00;69.80
17208;DHT22;8720;48.488;9.202;2023-12-22T04:33:42;9.00;69.60
17208;DHT22;8720;48.488;9.202;2023-12-22T04:36:09;9.00;69.50
17208;DHT22;8720;48.488;9.202;2023-12-22T04:38:37;9.00;69.40
17208;DHT22;8720;48.488;9.202;2023-12-22T04:41:07;9.00;69.50
17208;DHT22;8720;48.488;9.202;2023-12-22T04:43:34;9.10;68.70
17208;DHT22;8720;48.488;9.202;2023-12-22T04:46:02;9.10;69.20
17208;DHT22;8720;48.488;9.202;2023-12-22T04:48:29;9.10;69.00
17208;DHT22;8720;48.488;9.202;2023-12-22T04:50:58;9.10;69.20
17208;DHT22;8720;48.488;9.202;2023-12-22T04:53:26;9.10;69.40
17208;DHT22;8720;48.488;9.202;2023-12-22T04:55:53;9.10;69.50
17208;DHT22;8720;48.488;9.202;2023-12-22T04:58:21;9.10;69.70
17208;DHT22;8720;48.488;9.202;2023-12-22T05:00:49;9.10;69.20
17208;DHT22;8720;48.488;9.202;2023-12-22T05:03:17;9.10;69.70
17208;DHT22;8720;48.488;9.202;2023-12-22T05:05:44;9.10;69.80
17208;DHT22;8720;48.488;9.202;2023-12-22T05:08:11;9.10;69.60
17208;DHT22;8720;48.488;9.202;2023-12-22T05:10:39;9.10;69.90
17208;DHT22;8720;48.488;9.202;2023-12-22T05:13:06;9.10;69.90
17208;DHT22;8720;48.488;9.202;2023-12-22T05:15:35;9.10;69.90
17208;DHT22;8720;48.488;9.202;2023-12-22T05:18:03;9.10;69.40
17208;DHT22;8720;48.488;9.202;2023-12-22T05:20:30;9.10;69.50
17208;DHT22;8720;48.488;9.202;2023-12-22T05:22:58;9.10;69.40
17208;DHT22;8720;48.488;9.202;2023-12-22T05:25:25;9.10;69.40
17208;DHT22;8720;48.488;9.202;2023-12-22T05:27:52;9.10;69.20
17208;DHT22;8720;48.488;9.202;2023-12-22T05:30:20;9.10;69.10
17208;DHT22;8720;48.488;9.202;2023-12-22T05:32:49;9.10;69.00
17208;DHT22;8720;48.488;9.202;2023-12-22T05:35:16;9.10;68.40
17208;DHT22;8720;48.488;9.202;2023-12-22T05:37:43;9.10;68.80
17208;DHT22;8720;48.488;9.202;2023-12-22T05:40:11;9.10;68.70
17208;DHT22;8720;48.488;9.202;2023-12-22T05:42:38;9.10;68.60
17208;DHT22;8720;48.488;9.202;2023-12-22T05:45:06;9.20;68.70
17208;DHT22;8720;48.488;9.202;2023-12-22T05:47:36;9.20;68.40
17208;DHT22;8720;48.488;9.202;2023-12-22T05:50:07;9.30;68.50
17208;DHT22;8720;48.488;9.202;2023-12-22T05:52:36;9.30;67.70
17208;DHT22;8720;48.488;9.202;2023-12-22T05:55:04;9.30;68.10
17208;DHT22;8720;48.488;9.202;2023-12-22T05:57:34;9.30;67.60
17208;DHT22;8720;48.488;9.202;2023-12-22T06:00:01;9.30;68.00
17208;DHT22;8720;48.488;9.202;2023-12-22T06:02:31;9.40;67.90
17208;DHT22;8720;48.488;9.202;2023-12-22T06:04:58;9.40;67.90
17208;DHT22;8720;48.488;9.202;2023-12-22T06:07:27;9.40;67.80
17208;DHT22;8720;48.488;9.202;2023-12-22T06:09:54;9.40;67.10
17208;DHT22;8720;48.488;9.202;2023-12-22T06:12:21;9.50;67.60
17208;DHT22;8720;48.488;9.202;2023-12-22T06:14:49;9.50;67.60
17208;DHT22;8720;48.488;9.202;2023-12-22T06:17:16;9.50;67.30
17208;DHT22;8720;48.488;9.202;2023-12-22T06:19:43;9.50;67.10
17208;DHT22;8720;48.488;9.202;2023-12-22T06:22:10;9.50;67.20
17208;DHT22;8720;48.488;9.202;2023-12-22T06:24:39;9.50;67.30
17208;DHT22;8720;48.488;9.202;2023-12-22T06:27:06;9.50;67.20
17208;DHT22;8720;48.488;9.202;2023-12-22T06:29:34;9.60;68.00
17208;DHT22;8720;48.488;9.202;2023-12-22T06:32:01;9.50;68.20
17208;DHT22;8720;48.488;9.202;2023-12-22T06:34:31;9.50;68.30
17208;DHT22;8720;48.488;9.202;2023-12-22T06:36:59;9.50;68.60
17208;DHT22;8720;48.488;9.202;2023-12-22T06:39:26;9.40;68.50
17208;DHT22;8720;48.488;9.202;2023-12-22T06:41:54;9.30;68.80
17208;DHT22;8720;48.488;9.202;2023-12-22T06:44:22;9.30;69.00
17208;DHT22;8720;48.488;9.202;2023-12-22T06:46:51;9.30;69.60
17208;DHT22;8720;48.488;9.202;2023-12-22T06:49:18;9.20;69.70
17208;DHT22;8720;48.488;9.202;2023-12-22T06:51:45;9.10;70.00
17208;DHT22;8720;48.488;9.202;2023-12-22T06:54:13;9.10;70.40
17208;DHT22;8720;48.488;9.202;2023-12-22T06:56:40;9.00;70.60
17208;DHT22;8720;48.488;9.202;2023-12-22T06:59:09;9.00;70.60
17208;DHT22;8720;48.488;9.202;2023-12-22T07:01:37;8.90;70.20
17208;DHT22;8720;48.488;9.202;2023-12-22T07:04:05;8.90;70.40
17208;DHT22;8720;48.488;9.202;2023-12-22T07:06:33;8.90;70.20
17208;DHT22;8720;48.488;9.202;2023-12-22T07:09:32;8.80;69.80
17208;DHT22;8720;48.488;9.202;2023-12-22T07:11:59;8.80;68.40
17208;DHT22;8720;48.488;9.202;2023-12-22T07:14:28;8.90;70.00
17208;DHT22;8720;48.488;9.202;2023-12-22T07:16:55;8.80;69.60
17208;DHT22;8720;48.488;9.202;2023-12-22T07:19:24;8.90;70.00
17208;DHT22;8720;48.488;9.202;2023-12-22T07:21:51;8.90;69.70
17208;DHT22;8720;48.488;9.202;2023-12-22T07:24:18;8.90;69.50
17208;DHT22;8720;48.488;9.202;2023-12-22T07:26:46;8.90;69.60
17208;DHT22;8720;48.488;9.202;2023-12-22T07:29:13;9.00;69.30
17208;DHT22;8720;48.488;9.202;2023-12-22T07:31:42;9.00;69.40
17208;DHT22;8720;48.488;9.202;2023-12-22T07:34:09;9.10;69.10
17208;DHT22;8720;48.488;9.202;2023-12-22T07:36:37;9.10;69.20
17208;DHT22;8720;48.488;9.202;2023-12-22T07:39:05;9.10;69.00
17208;DHT22;8720;48.488;9.202;2023-12-22T07:41:34;9.20;69.10
17208;DHT22;8720;48.488;9.202;2023-12-22T07:44:02;9.20;68.80
17208;DHT22;8720;48.488;9.202;2023-12-22T07:46:29;9.20;68.60
17208;DHT22;8720;48.488;9.202;2023-12-22T07:48:58;9.20;68.50
17208;DHT22;8720;48.488;9.202;2023-12-22T07:51:25;9.30;68.20
17208;DHT22;8720;48.488;9.202;2023-12-22T07:53:53;9.30;68.80
17208;DHT22;8720;48.488;9.202;2023-12-22T07:56:20;9.30;68.90
17208;DHT22;8720;48.488;9.202;2023-12-22T07:58:48;9.40;69.00
17208;DHT22;8720;48.488;9.202;2023-12-22T08:01:15;9.40;69.00
17208;DHT22;8720;48.488;9.202;2023-12-22T08:03:43;9.40;69.00
17208;DHT22;8720;48.488;9.202;2023-12-22T08:06:12;9.40;68.90
17208;DHT22;8720;48.488;9.202;2023-12-22T08:08:40;9.50;68.50
17208;DHT22;8720;48.488;9.202;2023-12-22T08:11:07;9.50;68.80
17208;DHT22;8720;48.488;9.202;2023-12-22T08:13:34;9.50;68.80
17208;DHT22;8720;48.488;9.202;2023-12-22T08:16:03;9.50;68.90
17208;DHT22;8720;48.488;9.202;2023-12-22T08:18:31;9.50;68.60
17208;DHT22;8720;48.488;9.202;2023-12-22T08:20:58;9.50;68.80
17208;DHT22;8720;48.488;9.202;2023-12-22T08:23:27;9.50;68.80
17208;DHT22;8720;48.488;9.202;2023-12-22T08:25:54;9.50;68.50
17208;DHT22;8720;48.488;9.202;2023-12-22T08:28:23;9.60;69.10
17208;DHT22;8720;48.488;9.202;2023-12-22T08:30:51;9.60;69.20
17208;DHT22;8720;48.488;9.202;2023-12-22T08:33:19;9.60;69.20
17208;DHT22;8720;48.488;9.202;2023-12-22T08:35:46;9.60;69.20
17208;DHT22;8720;48.488;9.202;2023-12-22T08:38:13;9.60;69.20
17208;DHT22;8720;48.488;9.202;2023-12-22T08:40:42;9.60;69.10
17208;DHT22;8720;48.488;9.202;2023-12-22T08:43:10;9.60;68.40
17208;DHT22;8720;48.488;9.202;2023-12-22T08:45:38;9.60;69.20
17208;DHT22;8720;48.488;9.202;2023-12-22T08:48:06;9.60;69.30
17208;DHT22;8720;48.488;9.202;2023-12-22T08:50:34;9.60;69.20
17208;DHT22;8720;48.488;9.202;2023-12-22T08:53:02;9.60;69.20
17208;DHT22;8720;48.488;9.202;2023-12-22T08:55:29;9.60;69.40
17208;DHT22;8720;48.488;9.202;2023-12-22T08:57:58;9.60;69.40
17208;DHT22;8720;48.488;9.202;2023-12-22T09:00:25;9.70;69.10
17208;DHT22;8720;48.488;9.202;2023-12-22T09:02:53;9.60;69.40
17208;DHT22;8720;48.488;9.202;2023-12-22T09:05:20;9.60;69.70
17208;DHT22;8720;48.488;9.202;2023-12-22T09:07:50;9.60;70.00
17208;DHT22;8720;48.488;9.202;2023-12-22T09:10:17;9.60;70.10
17208;DHT22;8720;48.488;9.202;2023-12-22T09:12:44;9.60;70.30
17208;DHT22;8720;48.488;9.202;2023-12-22T09:15:14;9.60;70.50
17208;DHT22;8720;48.488;9.202;2023-12-22T09:17:45;9.60;70.30
17208;DHT22;8720;48.488;9.202;2023-12-22T09:20:12;9.60;70.20
17208;DHT22;8720;48.488;9.202;2023-12-22T09:22:39;9.60;71.00
17208;DHT22;8720;48.488;9.202;2023-12-22T09:25:07;9.50;71.10
17208;DHT22;8720;48.488;9.202;2023-12-22T09:27:35;9.50;71.20
17208;DHT22;8720;48.488;9.202;2023-12-22T09:30:03;9.50;71.30
17208;DHT22;8720;48.488;9.202;2023-12-22T09:32:34;9.50;71.90
17208;DHT22;8720;48.488;9.202;2023-12-22T09:35:01;9.50;71.40
17208;DHT22;8720;48.488;9.202;2023-12-22T09:37:29;9.50;71.90
17208;DHT22;8720;48.488;9.202;2023-12-22T09:39:56;9.50;72.00
17208;DHT22;8720;48.488;9.202;2023-12-22T09:42:25;9.50;72.00
17208;DHT22;8720;48.488;9.202;2023-12-22T09:44:53;9.50;71.60
17208;DHT22;8720;48.488;9.202;2023-12-22T09:47:25;9.50;71.90
17208;DHT22;8720;48.488;9.202;2023-12-22T09:49:58;9.50;71.90
17208;DHT22;8720;48.488;9.202;2023-12-22T09:52:26;9.50;71.80
17208;DHT22;8720;48.488;9.202;2023-12-22T09:54:56;9.40;72.00
17208;DHT22;8720;48.488;9.202;2023-12-22T09:57:26;9.40;72.30
17208;DHT22;8720;48.488;9.202;2023-12-22T09:59:54;9.40;72.20
17208;DHT22;8720;48.488;9.202;2023-12-22T10:02:24;9.40;72.70
17208;DHT22;8720;48.488;9.202;2023-12-22T10:04:52;9.40;72.60
17208;DHT22;8720;48.488;9.202;2023-12-22T10:07:22;9.50;72.70
17208;DHT22;8720;48.488;9.202;2023-12-22T10:09:50;9.50;72.30
17208;DHT22;8720;48.488;9.202;2023-12-22T10:12:19;9.50;72.80
17208;DHT22;8720;48.488;9.202;2023-12-22T10:14:47;9.50;72.90
17208;DHT22;8720;48.488;9.202;2023-12-22T10:17:15;9.50;72.60
17208;DHT22;8720;48.488;9.202;2023-12-22T10:19:43;9.50;72.60
17208;DHT22;8720;48.488;9.202;2023-12-22T10:22:11;9.60;72.90
17208;DHT22;8720;48.488;9.202;2023-12-22T10:24:41;9.60;72.50
17208;DHT22;8720;48.488;9.202;2023-12-22T10:27:10;9.60;72.00
17208;DHT22;8720;48.488;9.202;2023-12-22T10:29:38;9.60;72.30
17208;DHT22;8720;48.488;9.202;2023-12-22T10:32:06;9.60;72.40
17208;DHT22;8720;48.488;9.202;2023-12-22T10:34:35;9.60;72.10
17208;DHT22;8720;48.488;9.202;2023-12-22T10:37:03;9.60;72.20
17208;DHT22;8720;48.488;9.202;2023-12-22T10:39:31;9.70;72.50
17208;DHT22;8720;48.488;9.202;2023-12-22T10:42:01;9.60;72.00
17208;DHT22;8720;48.488;9.202;2023-12-22T10:44:30;9.70;71.70
17208;DHT22;8720;48.488;9.202;2023-12-22T10:46:58;9.70;72.10
17208;DHT22;8720;48.488;9.202;2023-12-22T10:49:28;9.70;72.00
17208;DHT22;8720;48.488;9.202;2023-12-22T10:51:57;9.70;72.10
17208;DHT22;8720;48.488;9.202;2023-12-22T10:54:25;9.70;72.00
17208;DHT22;8720;48.488;9.202;2023-12-22T10:56:57;9.70;72.30
17208;DHT22;8720;48.488;9.202;2023-12-22T10:59:29;9.70;71.80
17208;DHT22;8720;48.488;9.202;2023-12-22T11:01:57;9.70;71.40
17208;DHT22;8720;48.488;9.202;2023-12-22T11:04:30;9.70;72.00
17208;DHT22;8720;48.488;9.202;2023-12-22T11:07:03;9.70;71.40
17208;DHT22;8720;48.488;9.202;2023-12-22T11:09:32;9.70;71.70
17208;DHT22;8720;48.488;9.202;2023-12-22T11:12:03;9.80;71.90
17208;DHT22;8720;48.488;9.202;2023-12-22T11:14:34;9.80;72.30
17208;DHT22;8720;48.488;9.202;2023-12-22T11:17:04;9.80;71.80
17208;DHT22;8720;48.488;9.202;2023-12-22T11:19:34;9.80;72.20
17208;DHT22;8720;48.488;9.202;2023-12-22T11:22:04;9.80;72.10
17208;DHT22;8720;48.488;9.202;2023-12-22T11:24:38;9.80;72.00
17208;DHT22;8720;48.488;9.202;2023-12-22T11:27:09;9.80;72.20
17208;DHT22;8720;48.488;9.202;2023-12-22T11:29:40;9.80;72.20
17208;DHT22;8720;48.488;9.202;2023-12-22T11:32:09;9.80;71.80
17208;DHT22;8720;48.488;9.202;2023-12-22T11:34:42;9.80;72.30
17208;DHT22;8720;48.488;9.202;2023-12-22T11:37:11;9.80;72.30
17208;DHT22;8720;48.488;9.202;2023-12-22T11:39:40;9.80;72.40
17208;DHT22;8720;48.488;9.202;2023-12-22T11:42:10;9.80;72.70
17208;DHT22;8720;48.488;9.202;2023-12-22T11:44:42;9.80;72.30
17208;DHT22;8720;48.488;9.202;2023-12-22T11:47:11;9.80;72.30
17208;DHT22;8720;48.488;9.202;2023-12-22T11:49:41;9.80;73.00
17208;DHT22;8720;48.488;9.202;2023-12-22T11:52:12;9.80;72.90
17208;DHT22;8720;48.488;9.202;2023-12-22T11:54:44;9.80;72.50
17208;DHT22;8720;48.488;9.202;2023-12-22T11:57:36;9.80;72.50
17208;DHT22;8720;48.488;9.202;2023-12-22T12:00:08;9.80;71.50
17208;DHT22;8720;48.488;9.202;2023-12-22T12:02:59;9.80;72.20
17208;DHT22;8720;48.488;9.202;2023-12-22T12:05:33;9.80;72.60
17208;DHT22;8720;48.488;9.202;2023-12-22T12:08:06;9.80;73.30
17208;DHT22;8720;48.488;9.202;2023-12-22T12:10:51;9.80;72.20
17208;DHT22;8720;48.488;9.202;2023-12-22T12:13:22;9.80;71.60
17208;DHT22;8720;48.488;9.202;2023-12-22T12:15:52;9.80;72.50
17208;DHT22;8720;48.488;9.202;2023-12-22T12:18:23;9.80;73.10
17208;DHT22;8720;48.488;9.202;2023-12-22T12:20:51;9.80;72.70
17208;DHT22;8720;48.488;9.202;2023-12-22T12:23:19;9.80;73.30
17208;DHT22;8720;48.488;9.202;2023-12-22T12:25:47;9.80;73.30
17208;DHT22;8720;48.488;9.202;2023-12-22T12:28:15;9.80;73.40
17208;DHT22;8720;48.488;9.202;2023-12-22T12:30:44;9.70;73.90
17208;DHT22;8720;48.488;9.202;2023-12-22T12:33:12;9.70;73.70
17208;DHT22;8720;48.488;9.202;2023-12-22T12:35:43;9.80;73.60
17208;DHT22;8720;48.488;9.202;2023-12-22T12:38:13;9.80;73.30
17208;DHT22;8720;48.488;9.202;2023-12-22T12:40:45;9.90;73.40
17208;DHT22;8720;48.488;9.202;2023-12-22T12:43:17;9.90;73.20
17208;DHT22;8720;48.488;9.202;2023-12-22T12:45:45;9.90;73.40
17208;DHT22;8720;48.488;9.202;2023-12-22T12:48:16;9.90;73.40
17208;DHT22;8720;48.488;9.202;2023-12-22T12:50:45;9.90;72.90
17208;DHT22;8720;48.488;9.202;2023-12-22T12:53:13;10.00;72.20
17208;DHT22;8720;48.488;9.202;2023-12-22T12:55:40;10.00;72.50
17208;DHT22;8720;48.488;9.202;2023-12-22T12:58:09;10.00;72.40
17208;DHT22;8720;48.488;9.202;2023-12-22T13:00:36;10.00;72.10
17208;DHT22;8720;48.488;9.202;2023-12-22T13:03:05;10.00;72.70
17208;DHT22;8720;48.488;9.202;2023-12-22T13:05:33;10.10;72.60
17208;DHT22;8720;48.488;9.202;2023-12-22T13:08:09;10.10;72.50
17208;DHT22;8720;48.488;9.202;2023-12-22T13:10:38;10.10;71.60
17208;DHT22;8720;48.488;9.202;2023-12-22T13:13:06;10.10;72.50
17208;DHT22;8720;48.488;9.202;2023-12-22T13:15:34;10.20;72.80
17208;DHT22;8720;48.488;9.202;2023-12-22T13:18:01;10.20;73.00
17208;DHT22;8720;48.488;9.202;2023-12-22T13:20:29;10.20;72.90
17208;DHT22;8720;48.488;9.202;2023-12-22T13:22:57;10.20;73.00
17208;DHT22;8720;48.488;9.202;2023-12-22T13:25:26;10.20;72.60
17208;DHT22;8720;48.488;9.202;2023-12-22T13:27:55;10.30;72.60
17208;DHT22;8720;48.488;9.202;2023-12-22T13:30:32;10.30;72.90
17208;DHT22;8720;48.488;9.202;2023-12-22T13:33:00;10.30;71.70
17208;DHT22;8720;48.488;9.202;2023-12-22T13:35:28;10.30;73.00
17208;DHT22;8720;48.488;9.202;2023-12-22T13:37:56;10.40;73.10
17208;DHT22;8720;48.488;9.202;2023-12-22T13:40:26;10.40;72.80
17208;DHT22;8720;48.488;9.202;2023-12-22T13:42:54;10.40;72.80
17208;DHT22;8720;48.488;9.202;2023-12-22T13:45:23;10.40;72.80
17208;DHT22;8720;48.488;9.202;2023-12-22T13:47:51;10.40;73.20
17208;DHT22;8720;48.488;9.202;2023-12-22T13:50:19;10.40;73.00
17208;DHT22;8720;48.488;9.202;2023-12-22T13:52:49;10.40;73.20
17208;DHT22;8720;48.488;9.202;2023-12-22T13:55:18;10.50;73.30
17208;DHT22;8720;48.488;9.202;2023-12-22T13:57:59;10.50;72.80
17208;DHT22;8720;48.488;9.202;2023-12-22T14:00:27;10.50;71.70
17208;DHT22;8720;48.488;9.202;2023-12-22T14:02:57;10.50;73.00
17208;DHT22;8720;48.488;9.202;2023-12-22T14:05:24;10.60;73.20
17208;DHT22;8720;48.488;9.202;2023-12-22T14:07:54;10.60;73.40
17208;DHT22;8720;48.488;9.202;2023-12-22T14:10:22;10.60;73.30
17208;DHT22;8720;48.488;9.202;2023-12-22T14:12:51;10.60;73.30
17208;DHT22;8720;48.488;9.202;2023-12-22T14:15:19;10.60;73.00
17208;DHT22;8720;48.488;9.202;2023-12-22T14:17:51;10.60;73.10
17208;DHT22;8720;48.488;9.202;2023-12-22T14:20:18;10.60;73.00
17208;DHT22;8720;48.488;9.202;2023-12-22T14:22:46;10.60;73.30
17208;DHT22;8720;48.488;9.202;2023-12-22T14:25:14;10.60;73.40
17208;DHT22;8720;48.488;9.202;2023-12-22T14:27:41;10.60;73.30
17208;DHT22;8720;48.488;9.202;2023-12-22T14:30:12;10.60;73.40
17208;DHT22;8720;48.488;9.202;2023-12-22T14:32:40;10.60;72.80
17208;DHT22;8720;48.488;9.202;2023-12-22T14:35:08;10.60;73.90
17208;DHT22;8720;48.488;9.202;2023-12-22T14:37:35;10.60;73.10
17208;DHT22;8720;48.488;9.202;2023-12-22T14:40:03;10.60;73.40
17208;DHT22;8720;48.488;9.202;2023-12-22T14:42:32;10.60;73.30
17208;DHT22;8720;48.488;9.202;2023-12-22T14:44:59;10.60;73.30
17208;DHT22;8720;48.488;9.202;2023-12-22T14:47:29;10.60;73.10
17208;DHT22;8720;48.488;9.202;2023-12-22T14:49:57;10.70;72.90
17208;DHT22;8720;48.488;9.202;2023-12-22T14:52:25;10.60;73.50
17208;DHT22;8720;48.488;9.202;2023-12-22T14:54:52;10.60;73.50
17208;DHT22;8720;48.488;9.202;2023-12-22T14:57:20;10.60;73.60
17208;DHT22;8720;48.488;9.202;2023-12-22T14:59:48;10.60;73.50
17208;DHT22;8720;48.488;9.202;2023-12-22T15:02:15;10.60;73.60
17208;DHT22;8720;48.488;9.202;2023-12-22T15:04:44;10.60;73.50
17208;DHT22;8720;48.488;9.202;2023-12-22T15:07:14;10.60;72.80
17208;DHT22;8720;48.488;9.202;2023-12-22T15:09:43;10.60;72.80
17208;DHT22;8720;48.488;9.202;2023-12-22T15:12:11;10.70;73.70
17208;DHT22;8720;48.488;9.202;2023-12-22T15:14:43;10.70;73.80
17208;DHT22;8720;48.488;9.202;2023-12-22T15:17:11;10.70;72.90
17208;DHT22;8720;48.488;9.202;2023-12-22T15:19:40;10.70;73.60
17208;DHT22;8720;48.488;9.202;2023-12-22T15:22:10;10.70;73.60
17208;DHT22;8720;48.488;9.202;2023-12-22T15:24:37;10.70;73.20
17208;DHT22;8720;48.488;9.202;2023-12-22T15:27:09;10.70;73.90
17208;DHT22;8720;48.488;9.202;2023-12-22T15:29:36;10.70;74.20
17208;DHT22;8720;48.488;9.202;2023-12-22T15:32:04;10.70;74.30
17208;DHT22;8720;48.488;9.202;2023-12-22T15:34:32;10.70;74.30
17208;DHT22;8720;48.488;9.202;2023-12-22T15:37:00;10.70;74.30
17208;DHT22;8720;48.488;9.202;2023-12-22T15:39:29;10.70;74.40
17208;DHT22;8720;48.488;9.202;2023-12-22T15:41:56;10.70;74.30
17208;DHT22;8720;48.488;9.202;2023-12-22T15:44:24;10.70;74.60
17208;DHT22;8720;48.488;9.202;2023-12-22T15:46:51;10.60;75.30
17208;DHT22;8720;48.488;9.202;2023-12-22T15:49:18;10.50;75.40
17208;DHT22;8720;48.488;9.202;2023-12-22T15:51:46;10.50;75.30
17208;DHT22;8720;48.488;9.202;2023-12-22T15:54:14;10.60;75.20
17208;DHT22;8720;48.488;9.202;2023-12-22T15:56:43;10.60;75.10
17208;DHT22;8720;48.488;9.202;2023-12-22T15:59:11;10.60;74.50
17208;DHT22;8720;48.488;9.202;2023-12-22T16:01:42;10.60;74.50
17208;DHT22;8720;48.488;9.202;2023-12-22T16:04:10;10.60;73.60
17208;DHT22;8720;48.488;9.202;2023-12-22T16:06:37;10.60;74.40
17208;DHT22;8720;48.488;9.202;2023-12-22T16:09:05;10.60;74.40